sensor_id;sensor_type;location;lat;lon;timestamp;pressure;altitude;pressure_sealevel;temperature;humidity
53011;BME280;42803;55.762;38.084;2024-01-16T00:01:43;97196.72;;;-2.82;100.00
53011;BME280;42803;55.762;38.084;2024-01-16T00:04:12;97199.06;;;-2.75;100.00
53011;BME280;42803;55.762;38.084;2024-01-16T00:06:42;97202.44;;;-2.65;100.00
53011;BME280;42803;55.762;38.084;2024-01-16T00:09:15;97204.22;;;-2.64;100.00
53011;BME280;42803;55.762;38.084;2024-01-16T00:11:44;97203.72;;;-2.60;100.00
53011;BME280;42803;55.762;38.084;2024-01-16T00:14:13;97209.13;;;-2.57;100.00
53011;BME280;42803;55.762;38.084;2024-01-16T00:16:45;97206.97;;;-2.53;100.00
53011;BME280;42803;55.762;38.084;2024-01-16T00:19:15;97204.28;;;-2.54;100.00
53011;BME280;42803;55.762;38.084;2024-01-16T00:21:45;97202.75;;;-2.52;100.00
53011;BME280;42803;55.762;38.084;2024-01-16T00:24:15;97200.34;;;-2.51;100.00
53011;BME280;42803;55.762;38.084;2024-01-16T00:26:44;97201.53;;;-2.47;100.00
53011;BME280;42803;55.762;38.084;2024-01-16T00:29:14;97206.34;;;-2.50;100.00
53011;BME280;42803;55.762;38.084;2024-01-16T00:31:45;97205.59;;;-2.49;100.00
53011;BME280;42803;55.762;38.084;2024-01-16T00:34:14;97199.72;;;-2.48;100.00
53011;BME280;42803;55.762;38.084;2024-01-16T00:36:43;97208.41;;;-2.46;100.00
53011;BME280;42803;55.762;38.084;2024-01-16T00:39:12;97209.31;;;-2.46;100.00
53011;BME280;42803;55.762;38.084;2024-01-16T00:41:42;97204.19;;;-2.46;100.00
53011;BME280;42803;55.762;38.084;2024-01-16T00:44:11;97198.09;;;-2.48;100.00
53011;BME280;42803;55.762;38.084;2024-01-16T00:46:40;97202.25;;;-2.48;100.00
53011;BME280;42803;55.762;38.084;2024-01-16T00:49:11;97198.19;;;-2.46;100.00
53011;BME280;42803;55.762;38.084;2024-01-16T00:51:40;97197.31;;;-2.47;100.00
53011;BME280;42803;55.762;38.084;2024-01-16T00:54:09;97196.69;;;-2.44;100.00
53011;BME280;42803;55.762;38.084;2024-01-16T00:56:38;97194.88;;;-2.45;100.00
53011;BME280;42803;55.762;38.084;2024-01-16T00:59:10;97197.59;;;-2.43;100.00
53011;BME280;42803;55.762;38.084;2024-01-16T01:01:40;97196.69;;;-2.44;100.00
53011;BME280;42803;55.762;38.084;2024-01-16T01:04:09;97200.28;;;-2.42;100.00
53011;BME280;42803;55.762;38.084;2024-01-16T01:06:39;97206.91;;;-2.44;100.00
53011;BME280;42803;55.762;38.084;2024-01-16T01:09:09;97205.88;;;-2.46;100.00
53011;BME280;42803;55.762;38.084;2024-01-16T01:11:39;97201.81;;;-2.44;100.00
53011;BME280;42803;55.762;38.084;2024-01-16T01:14:09;97194.88;;;-2.45;100.00
53011;BME280;42803;55.762;38.084;2024-01-16T01:16:38;97192.03;;;-2.48;100.00
53011;BME280;42803;55.762;38.084;2024-01-16T01:19:07;97197.31;;;-2.47;100.00
53011;BME280;42803;55.762;38.084;2024-01-16T01:21:37;97197.44;;;-2.45;100.00
53011;BME280;42803;55.762;38.084;2024-01-16T01:24:07;97198.09;;;-2.48;100.00
53011;BME280;42803;55.762;38.084;2024-01-16T01:26:36;97201.53;;;-2.47;100.00
53011;BME280;42803;55.762;38.084;2024-01-16T01:29:06;97194.59;;;-2.48;100.00
53011;BME280;42803;55.762;38.084;2024-01-16T01:31:35;97200.88;;;-2.45;100.00
53011;BME280;42803;55.762;38.084;2024-01-16T01:34:04;97195.16;;;-2.42;100.00
53011;BME280;42803;55.762;38.084;2024-01-16T01:36:35;97192.72;;;-2.40;100.00
53011;BME280;42803;55.762;38.084;2024-01-16T01:39:04;97192.72;;;-2.40;100.00
53011;BME280;42803;55.762;38.084;2024-01-16T01:41:35;97190.06;;;-2.42;100.00
53011;BME280;42803;55.762;38.084;2024-01-16T01:44:05;97182.38;;;-2.42;100.00
53011;BME280;42803;55.762;38.084;2024-01-16T01:46:35;97188.09;;;-2.45;100.00
53011;BME280;42803;55.762;38.084;2024-01-16T01:49:05;97184.66;;;-2.45;100.00
53011;BME280;42803;55.762;38.084;2024-01-16T01:51:34;97184.66;;;-2.45;100.00
53011;BME280;42803;55.762;38.084;2024-01-16T01:54:03;97190.53;;;-2.46;100.00
53011;BME280;42803;55.762;38.084;2024-01-16T01:56:34;97192.31;;;-2.45;100.00
53011;BME280;42803;55.762;38.084;2024-01-16T01:59:04;97186.31;;;-2.46;100.00
53011;BME280;42803;55.762;38.084;2024-01-16T02:01:34;97186.19;;;-2.47;100.00
53011;BME280;42803;55.762;38.084;2024-01-16T02:04:04;97184.25;;;-2.50;100.00
53011;BME280;42803;55.762;38.084;2024-01-16T02:06:35;97178.38;;;-2.49;100.00
53011;BME280;42803;55.762;38.084;2024-01-16T02:09:04;97172.38;;;-2.49;100.00
53011;BME280;42803;55.762;38.084;2024-01-16T02:11:36;97179.94;;;-2.51;100.00
53011;BME280;42803;55.762;38.084;2024-01-16T02:14:05;97181.31;;;-2.54;100.00
53011;BME280;42803;55.762;38.084;2024-01-16T02:16:36;97177.84;;;-2.55;100.00
53011;BME280;42803;55.762;38.084;2024-01-16T02:19:07;97187.31;;;-2.54;100.00
53011;BME280;42803;55.762;38.084;2024-01-16T02:21:38;97182.31;;;-2.52;100.00
53011;BME280;42803;55.762;38.084;2024-01-16T02:24:10;97179.28;;;-2.48;100.00
53011;BME280;42803;55.762;38.084;2024-01-16T02:26:40;97178.53;;;-2.47;100.00
53011;BME280;42803;55.762;38.084;2024-01-16T02:29:09;97177.50;;;-2.49;100.00
53011;BME280;42803;55.762;38.084;2024-01-16T02:31:39;97185.94;;;-2.50;100.00
53011;BME280;42803;55.762;38.084;2024-01-16T02:34:08;97178.88;;;-2.53;100.00
53011;BME280;42803;55.762;38.084;2024-01-16T02:36:37;97186.69;;;-2.51;100.00
53011;BME280;42803;55.762;38.084;2024-01-16T02:39:07;97186.53;;;-2.53;100.00
53011;BME280;42803;55.762;38.084;2024-01-16T02:41:37;97183.25;;;-2.52;100.00
53011;BME280;42803;55.762;38.084;2024-01-16T02:44:06;97188.06;;;-2.55;100.00
53011;BME280;42803;55.762;38.084;2024-01-16T02:46:36;97190.75;;;-2.53;100.00
53011;BME280;42803;55.762;38.084;2024-01-16T02:49:06;97189.25;;;-2.51;100.00
53011;BME280;42803;55.762;38.084;2024-01-16T02:51:36;97191.66;;;-2.53;100.00
53011;BME280;42803;55.762;38.084;2024-01-16T02:54:06;97202.75;;;-2.52;100.00
53011;BME280;42803;55.762;38.084;2024-01-16T02:56:38;97196.75;;;-2.53;100.00
53011;BME280;42803;55.762;38.084;2024-01-16T02:59:07;97202.25;;;-2.48;100.00
53011;BME280;42803;55.762;38.084;2024-01-16T03:01:36;97199.88;;;-2.47;100.00
53011;BME280;42803;55.762;38.084;2024-01-16T03:04:05;97196.75;;;-2.53;100.00
53011;BME280;42803;55.762;38.084;2024-01-16T03:06:35;97191.53;;;-2.54;100.00
53011;BME280;42803;55.762;38.084;2024-01-16T03:09:04;97192.28;;;-2.55;100.00
53011;BME280;42803;55.762;38.084;2024-01-16T03:11:34;97187.78;;;-2.58;100.00
53011;BME280;42803;55.762;38.084;2024-01-16T03:14:05;97198.63;;;-2.60;100.00
53011;BME280;42803;55.762;38.084;2024-01-16T03:16:34;97196.84;;;-2.61;100.00
53011;BME280;42803;55.762;38.084;2024-01-16T03:19:03;97203.44;;;-2.63;100.00
53011;BME280;42803;55.762;38.084;2024-01-16T03:21:33;97198.34;;;-2.63;100.00
53011;BME280;42803;55.762;38.084;2024-01-16T03:24:02;97195.53;;;-2.66;100.00
53011;BME280;42803;55.762;38.084;2024-01-16T03:26:32;97202.31;;;-2.67;100.00
53011;BME280;42803;55.762;38.084;2024-01-16T03:29:01;97199.31;;;-2.72;100.00
53011;BME280;42803;55.762;38.084;2024-01-16T03:31:32;97199.31;;;-2.72;100.00
53011;BME280;42803;55.762;38.084;2024-01-16T03:34:01;97203.69;;;-2.71;100.00
53011;BME280;42803;55.762;38.084;2024-01-16T03:36:30;97200.84;;;-2.74;100.00
53011;BME280;42803;55.762;38.084;2024-01-16T03:38:59;97196.84;;;-2.80;100.00
53011;BME280;42803;55.762;38.084;2024-01-16T03:41:29;97185.94;;;-2.88;100.00
53011;BME280;42803;55.762;38.084;2024-01-16T03:43:58;97187.78;;;-2.96;100.00
53011;BME280;42803;55.762;38.084;2024-01-16T03:46:28;97180.34;;;-3.03;100.00
53011;BME280;42803;55.762;38.084;2024-01-16T03:49:00;97181.31;;;-3.11;100.00
53011;BME280;42803;55.762;38.084;2024-01-16T03:51:29;97183.16;;;-3.19;100.00
53011;BME280;42803;55.762;38.084;2024-01-16T03:53:59;97182.94;;;-3.30;100.00
53011;BME280;42803;55.762;38.084;2024-01-16T03:56:28;97186.44;;;-3.38;100.00
53011;BME280;42803;55.762;38.084;2024-01-16T03:58:57;97202.03;;;-3.44;100.00
53011;BME280;42803;55.762;38.084;2024-01-16T04:01:32;97201.91;;;-3.46;100.00
53011;BME280;42803;55.762;38.084;2024-01-16T04:04:07;97204.59;;;-3.44;100.00
53011;BME280;42803;55.762;38.084;2024-01-16T04:06:36;97194.69;;;-3.41;100.00
53011;BME280;42803;55.762;38.084;2024-01-16T04:09:05;97197.81;;;-3.35;100.00
53011;BME280;42803;55.762;38.084;2024-01-16T04:11:35;97199.47;;;-3.35;100.00
53011;BME280;42803;55.762;38.084;2024-01-16T04:14:04;97208.75;;;-3.36;100.00
53011;BME280;42803;55.762;38.084;2024-01-16T04:16:34;97203.94;;;-3.33;100.00
53011;BME280;42803;55.762;38.084;2024-01-16T04:19:04;97210.22;;;-3.29;100.00
53011;BME280;42803;55.762;38.084;2024-01-16T04:21:36;97215.72;;;-3.25;100.00
53011;BME280;42803;55.762;38.084;2024-01-16T04:24:05;97212.28;;;-3.25;100.00
53011;BME280;42803;55.762;38.084;2024-01-16T04:26:36;97207.81;;;-3.28;100.00
53011;BME280;42803;55.762;38.084;2024-01-16T04:29:05;97213.81;;;-3.27;100.00
53011;BME280;42803;55.762;38.084;2024-01-16T04:31:39;97203.63;;;-3.27;100.00
53011;BME280;42803;55.762;38.084;2024-01-16T04:34:08;97206.00;;;-3.29;100.00
53011;BME280;42803;55.762;38.084;2024-01-16T04:36:39;97205.88;;;-3.30;100.00
53011;BME280;42803;55.762;38.084;2024-01-16T04:39:08;97208.91;;;-3.34;100.00
53011;BME280;42803;55.762;38.084;2024-01-16T04:41:37;97209.50;;;-3.37;100.00
53011;BME280;42803;55.762;38.084;2024-01-16T04:44:07;97209.97;;;-3.41;100.00
53011;BME280;42803;55.762;38.084;2024-01-16T04:46:36;97214.78;;;-3.44;100.00
53011;BME280;42803;55.762;38.084;2024-01-16T04:49:05;97221.00;;;-3.51;100.00
53011;BME280;42803;55.762;38.084;2024-01-16T04:51:34;97218.75;;;-3.56;100.00
53011;BME280;42803;55.762;38.084;2024-01-16T04:54:05;97207.38;;;-3.60;100.00
53011;BME280;42803;55.762;38.084;2024-01-16T04:56:34;97214.47;;;-3.66;100.00
53011;BME280;42803;55.762;38.084;2024-01-16T04:59:04;97208.91;;;-3.71;100.00
53011;BME280;42803;55.762;38.084;2024-01-16T05:01:33;97221.81;;;-3.78;100.00
53011;BME280;42803;55.762;38.084;2024-01-16T05:04:03;97221.56;;;-3.81;100.00
53011;BME280;42803;55.762;38.084;2024-01-16T05:06:33;97228.31;;;-3.81;100.00
53011;BME280;42803;55.762;38.084;2024-01-16T05:09:03;97220.81;;;-3.80;100.00
53011;BME280;42803;55.762;38.084;2024-01-16T05:11:34;97225.78;;;-3.81;100.00
53011;BME280;42803;55.762;38.084;2024-01-16T05:14:03;97228.44;;;-3.80;100.00
53011;BME280;42803;55.762;38.084;2024-01-16T05:16:32;97225.44;;;-3.76;100.00
53011;BME280;42803;55.762;38.084;2024-01-16T05:19:01;97230.66;;;-3.74;100.00
53011;BME280;42803;55.762;38.084;2024-01-16T05:21:33;97224.66;;;-3.75;100.00
53011;BME280;42803;55.762;38.084;2024-01-16T05:24:03;97238.47;;;-3.73;100.00
53011;BME280;42803;55.762;38.084;2024-01-16T05:26:34;97229.03;;;-3.74;100.00
53011;BME280;42803;55.762;38.084;2024-01-16T05:29:03;97229.78;;;-3.75;100.00
53011;BME280;42803;55.762;38.084;2024-01-16T05:31:49;97232.31;;;-3.75;100.00
53011;BME280;42803;55.762;38.084;2024-01-16T05:34:23;97235.63;;;-3.76;100.00
53011;BME280;42803;55.762;38.084;2024-01-16T05:36:53;97239.53;;;-3.79;100.00
53011;BME280;42803;55.762;38.084;2024-01-16T05:39:22;97240.75;;;-3.84;100.00
53011;BME280;42803;55.762;38.084;2024-01-16T05:41:53;97242.41;;;-3.85;100.00
53011;BME280;42803;55.762;38.084;2024-01-16T05:44:22;97245.84;;;-3.84;100.00
53011;BME280;42803;55.762;38.084;2024-01-16T05:46:52;97246.44;;;-3.87;100.00
53011;BME280;42803;55.762;38.084;2024-01-16T05:49:22;97249.00;;;-3.87;100.00
53011;BME280;42803;55.762;38.084;2024-01-16T05:51:53;97244.03;;;-3.85;100.00
53011;BME280;42803;55.762;38.084;2024-01-16T05:54:22;97240.75;;;-3.84;100.00
53011;BME280;42803;55.762;38.084;2024-01-16T05:56:52;97230.88;;;-3.81;100.00
53011;BME280;42803;55.762;38.084;2024-01-16T05:59:22;97226.50;;;-3.82;100.00
53011;BME280;42803;55.762;38.084;2024-01-16T06:01:51;97226.66;;;-3.81;100.00
53011;BME280;42803;55.762;38.084;2024-01-16T06:04:21;97225.00;;;-3.80;100.00
53011;BME280;42803;55.762;38.084;2024-01-16T06:06:50;97223.47;;;-3.78;100.00
53011;BME280;42803;55.762;38.084;2024-01-16T06:09:28;97217.66;;;-3.77;100.00
53011;BME280;42803;55.762;38.084;2024-01-16T06:12:06;97220.63;;;-3.73;100.00
53011;BME280;42803;55.762;38.084;2024-01-16T06:14:36;97226.63;;;-3.72;100.00
53011;BME280;42803;55.762;38.084;2024-01-16T06:17:05;97233.66;;;-3.70;100.00
53011;BME280;42803;55.762;38.084;2024-01-16T06:19:35;97244.59;;;-3.71;100.00
53011;BME280;42803;55.762;38.084;2024-01-16T06:22:04;97247.31;;;-3.69;100.00
53011;BME280;42803;55.762;38.084;2024-01-16T06:24:34;97255.09;;;-3.68;100.00
53011;BME280;42803;55.762;38.084;2024-01-16T06:27:07;97250.00;;;-3.68;100.00
53011;BME280;42803;55.762;38.084;2024-01-16T06:29:36;97239.19;;;-3.65;100.00
53011;BME280;42803;55.762;38.084;2024-01-16T06:32:06;97225.56;;;-3.65;100.00
53011;BME280;42803;55.762;38.084;2024-01-16T06:34:35;97220.00;;;-3.61;100.00
53011;BME280;42803;55.762;38.084;2024-01-16T06:37:04;97215.66;;;-3.62;100.00
53011;BME280;42803;55.762;38.084;2024-01-16T06:39:34;97220.75;;;-3.62;100.00
53011;BME280;42803;55.762;38.084;2024-01-16T06:42:03;97230.19;;;-3.61;100.00
53011;BME280;42803;55.762;38.084;2024-01-16T06:44:39;97241.16;;;-3.62;100.00
53011;BME280;42803;55.762;38.084;2024-01-16T06:47:08;97236.06;;;-3.62;100.00
53011;BME280;42803;55.762;38.084;2024-01-16T06:49:37;97239.91;;;-3.57;100.00
53011;BME280;42803;55.762;38.084;2024-01-16T06:52:08;97230.00;;;-3.54;100.00
53011;BME280;42803;55.762;38.084;2024-01-16T06:54:38;97228.34;;;-3.54;100.00
53011;BME280;42803;55.762;38.084;2024-01-16T06:57:07;97237.03;;;-3.52;100.00
53011;BME280;42803;55.762;38.084;2024-01-16T06:59:36;97247.09;;;-3.53;100.00
53011;BME280;42803;55.762;38.084;2024-01-16T07:02:06;97247.09;;;-3.53;100.00
53011;BME280;42803;55.762;38.084;2024-01-16T07:04:36;97237.91;;;-3.51;100.00
53011;BME280;42803;55.762;38.084;2024-01-16T07:07:05;97230.72;;;-3.47;100.00
53011;BME280;42803;55.762;38.084;2024-01-16T07:09:34;97239.09;;;-3.48;100.00
53011;BME280;42803;55.762;38.084;2024-01-16T07:12:04;97241.22;;;-3.52;100.00
53011;BME280;42803;55.762;38.084;2024-01-16T07:14:33;97245.44;;;-3.53;100.00
53011;BME280;42803;55.762;38.084;2024-01-16T07:17:05;97248.13;;;-3.51;100.00
53011;BME280;42803;55.762;38.084;2024-01-16T07:19:35;97242.00;;;-3.53;100.00
53011;BME280;42803;55.762;38.084;2024-01-16T07:22:05;97250.53;;;-3.53;100.00
53011;BME280;42803;55.762;38.084;2024-01-16T07:24:34;97258.78;;;-3.55;100.00
53011;BME280;42803;55.762;38.084;2024-01-16T07:27:03;97260.13;;;-3.50;100.00
53011;BME280;42803;55.762;38.084;2024-01-16T07:29:32;97257.59;;;-3.50;100.00
53011;BME280;42803;55.762;38.084;2024-01-16T07:32:01;97251.72;;;-3.49;100.00
53011;BME280;42803;55.762;38.084;2024-01-16T07:34:32;97250.53;;;-3.53;100.00
53011;BME280;42803;55.762;38.084;2024-01-16T07:37:01;97241.22;;;-3.52;100.00
53011;BME280;42803;55.762;38.084;2024-01-16T07:39:31;97236.28;;;-3.51;100.00
53011;BME280;42803;55.762;38.084;2024-01-16T07:42:00;97240.94;;;-3.47;100.00
53011;BME280;42803;55.762;38.084;2024-01-16T07:44:30;97240.03;;;-3.47;100.00
53011;BME280;42803;55.762;38.084;2024-01-16T07:47:00;97235.19;;;-3.44;100.00
53011;BME280;42803;55.762;38.084;2024-01-16T07:49:29;97233.53;;;-3.44;100.00
53011;BME280;42803;55.762;38.084;2024-01-16T07:52:00;97232.81;;;-3.42;100.00
53011;BME280;42803;55.762;38.084;2024-01-16T07:54:29;97243.28;;;-3.39;100.00
53011;BME280;42803;55.762;38.084;2024-01-16T07:56:58;97234.72;;;-3.40;100.00
53011;BME280;42803;55.762;38.084;2024-01-16T07:59:28;97229.78;;;-3.38;100.00
53011;BME280;42803;55.762;38.084;2024-01-16T08:01:57;97224.81;;;-3.37;100.00
53011;BME280;42803;55.762;38.084;2024-01-16T08:04:26;97225.88;;;-3.35;100.00
53011;BME280;42803;55.762;38.084;2024-01-16T08:06:55;97227.66;;;-3.34;100.00
53011;BME280;42803;55.762;38.084;2024-01-16T08:09:26;97227.31;;;-3.28;100.00
53011;BME280;42803;55.762;38.084;2024-01-16T08:11:56;97233.88;;;-3.22;100.00
53011;BME280;42803;55.762;38.084;2024-01-16T08:14:25;97234.16;;;-3.19;100.00
53011;BME280;42803;55.762;38.084;2024-01-16T08:16:54;97236.84;;;-3.17;100.00
53011;BME280;42803;55.762;38.084;2024-01-16T08:19:24;97232.31;;;-3.11;100.00
53011;BME280;42803;55.762;38.084;2024-01-16T08:21:53;97222.06;;;-3.02;100.00
53011;BME280;42803;55.762;38.084;2024-01-16T08:24:23;97208.28;;;-3.04;100.00
53011;BME280;42803;55.762;38.084;2024-01-16T08:26:54;97199.56;;;-3.06;100.00
53011;BME280;42803;55.762;38.084;2024-01-16T08:29:25;97204.28;;;-2.92;100.00
53011;BME280;42803;55.762;38.084;2024-01-16T08:31:54;97204.28;;;-2.92;100.00
53011;BME280;42803;55.762;38.084;2024-01-16T08:34:24;97201.72;;;-2.92;100.00
53011;BME280;42803;55.762;38.084;2024-01-16T08:36:53;97201.72;;;-2.92;100.00
53011;BME280;42803;55.762;38.084;2024-01-16T08:39:24;97207.66;;;-2.83;100.00
53011;BME280;42803;55.762;38.084;2024-01-16T08:41:56;97208.84;;;-2.79;100.00
53011;BME280;42803;55.762;38.084;2024-01-16T08:44:26;97211.59;;;-2.67;100.00
53011;BME280;42803;55.762;38.084;2024-01-16T08:46:55;97206.84;;;-2.73;100.00
53011;BME280;42803;55.762;38.084;2024-01-16T08:49:25;97205.38;;;-2.80;100.00
53011;BME280;42803;55.762;38.084;2024-01-16T08:51:54;97205.47;;;-2.88;100.00
53011;BME280;42803;55.762;38.084;2024-01-16T08:54:24;97213.19;;;-2.97;100.00
53011;BME280;42803;55.762;38.084;2024-01-16T08:56:53;97210.34;;;-3.00;100.00
53011;BME280;42803;55.762;38.084;2024-01-16T08:59:24;97208.56;;;-3.01;100.00
53011;BME280;42803;55.762;38.084;2024-01-16T09:01:53;97203.72;;;-2.98;100.00
53011;BME280;42803;55.762;38.084;2024-01-16T09:04:23;97192.56;;;-2.90;100.00
53011;BME280;42803;55.762;38.084;2024-01-16T09:06:52;97187.72;;;-2.87;100.00
53011;BME280;42803;55.762;38.084;2024-01-16T09:09:21;97193.38;;;-2.81;100.00
53011;BME280;42803;55.762;38.084;2024-01-16T09:11:51;97192.78;;;-2.78;100.00
53011;BME280;42803;55.762;38.084;2024-01-16T09:14:20;97205.94;;;-2.74;100.00
53011;BME280;42803;55.762;38.084;2024-01-16T09:16:51;97200.56;;;-2.77;100.00
53011;BME280;42803;55.762;38.084;2024-01-16T09:19:21;97189.66;;;-2.65;100.00
53011;BME280;42803;55.762;38.084;2024-01-16T09:21:51;97189.66;;;-2.65;100.00
53011;BME280;42803;55.762;38.084;2024-01-16T09:24:20;97192.34;;;-2.64;100.00
53011;BME280;42803;55.762;38.084;2024-01-16T09:26:49;97187.88;;;-2.66;100.00
53011;BME280;42803;55.762;38.084;2024-01-16T09:29:19;97181.50;;;-2.61;100.00
53011;BME280;42803;55.762;38.084;2024-01-16T09:31:50;97182.31;;;-2.52;100.00
53011;BME280;42803;55.762;38.084;2024-01-16T09:34:19;97180.44;;;-2.45;100.00
53011;BME280;42803;55.762;38.084;2024-01-16T09:36:49;97182.09;;;-2.45;100.00
53011;BME280;42803;55.762;38.084;2024-01-16T09:39:18;97187.00;;;-2.38;100.00
53011;BME280;42803;55.762;38.084;2024-01-16T09:41:47;97184.34;;;-2.29;100.00
53011;BME280;42803;55.762;38.084;2024-01-16T09:44:17;97179.69;;;-2.25;100.00
53011;BME280;42803;55.762;38.084;2024-01-16T09:46:47;97173.31;;;-2.19;100.00
53011;BME280;42803;55.762;38.084;2024-01-16T09:49:19;97174.59;;;-2.14;100.00
53011;BME280;42803;55.762;38.084;2024-01-16T09:51:48;97166.69;;;-2.07;100.00
53011;BME280;42803;55.762;38.084;2024-01-16T09:54:18;97163.81;;;-2.02;100.00
53011;BME280;42803;55.762;38.084;2024-01-16T09:56:51;97149.13;;;-1.94;100.00
53011;BME280;42803;55.762;38.084;2024-01-16T09:59:22;97144.66;;;-1.86;100.00
53011;BME280;42803;55.762;38.084;2024-01-16T10:01:52;97143.78;;;-1.87;100.00
53011;BME280;42803;55.762;38.084;2024-01-16T10:04:25;97142.75;;;-1.89;100.00
53011;BME280;42803;55.762;38.084;2024-01-16T10:06:56;97142.13;;;-1.76;100.00
53011;BME280;42803;55.762;38.084;2024-01-16T10:09:26;97139.97;;;-1.72;100.00
53011;BME280;42803;55.762;38.084;2024-01-16T10:11:56;97140.47;;;-1.65;100.00
53011;BME280;42803;55.762;38.084;2024-01-16T10:14:25;97134.75;;;-1.63;100.00
53011;BME280;42803;55.762;38.084;2024-01-16T10:16:55;97135.38;;;-1.65;100.00
53011;BME280;42803;55.762;38.084;2024-01-16T10:19:28;97136.91;;;-1.67;100.00
53011;BME280;42803;55.762;38.084;2024-01-16T10:22:13;97143.81;;;-1.66;100.00
53011;BME280;42803;55.762;38.084;2024-01-16T10:25:04;97145.59;;;-1.65;100.00
53011;BME280;42803;55.762;38.084;2024-01-16T10:27:34;97147.88;;;-1.68;99.85
53011;BME280;42803;55.762;38.084;2024-01-16T10:30:05;97142.78;;;-1.79;100.00
53011;BME280;42803;55.762;38.084;2024-01-16T10:32:37;97143.00;;;-1.76;100.00
53011;BME280;42803;55.762;38.084;2024-01-16T10:35:11;97142.88;;;-1.77;100.00
53011;BME280;42803;55.762;38.084;2024-01-16T10:37:42;97138.28;;;-1.81;100.00
53011;BME280;42803;55.762;38.084;2024-01-16T10:40:15;97140.72;;;-1.83;100.00
53011;BME280;42803;55.762;38.084;2024-01-16T10:42:58;97132.63;;;-1.87;100.00
53011;BME280;42803;55.762;38.084;2024-01-16T10:45:28;97126.13;;;-1.84;100.00
53011;BME280;42803;55.762;38.084;2024-01-16T10:48:07;97124.72;;;-1.80;100.00
53011;BME280;42803;55.762;38.084;2024-01-16T10:50:39;97115.53;;;-1.78;100.00
53011;BME280;42803;55.762;38.084;2024-01-16T10:53:09;97114.75;;;-1.77;100.00
53011;BME280;42803;55.762;38.084;2024-01-16T10:55:42;97100.69;;;-1.72;100.00
53011;BME280;42803;55.762;38.084;2024-01-16T10:58:13;97103.41;;;-1.70;100.00
53011;BME280;42803;55.762;38.084;2024-01-16T11:00:43;97098.53;;;-1.78;100.00
53011;BME280;42803;55.762;38.084;2024-01-16T11:03:19;97099.31;;;-1.79;100.00
53011;BME280;42803;55.762;38.084;2024-01-16T11:05:52;97101.31;;;-1.85;100.00
53011;BME280;42803;55.762;38.084;2024-01-16T11:08:23;97096.22;;;-1.85;100.00
53011;BME280;42803;55.762;38.084;2024-01-16T11:10:58;97099.91;;;-1.91;100.00
53011;BME280;42803;55.762;38.084;2024-01-16T11:13:29;97101.31;;;-1.95;100.00
53011;BME280;42803;55.762;38.084;2024-01-16T11:15:59;97102.97;;;-1.96;100.00
53011;BME280;42803;55.762;38.084;2024-01-16T11:18:30;97104.00;;;-1.93;100.00
53011;BME280;42803;55.762;38.084;2024-01-16T11:21:05;97104.13;;;-2.02;100.00
53011;BME280;42803;55.762;38.084;2024-01-16T11:23:40;97099.47;;;-2.06;100.00
53011;BME280;42803;55.762;38.084;2024-01-16T11:26:25;97097.69;;;-2.07;100.00
53011;BME280;42803;55.762;38.084;2024-01-16T11:28:57;97104.34;;;-2.09;100.00
53011;BME280;42803;55.762;38.084;2024-01-16T11:31:29;97098.19;;;-2.11;100.00
53011;BME280;42803;55.762;38.084;2024-01-16T11:33:59;97102.03;;;-2.06;100.00
53011;BME280;42803;55.762;38.084;2024-01-16T11:36:51;97096.47;;;-2.02;100.00
53011;BME280;42803;55.762;38.084;2024-01-16T11:39:25;97087.97;;;-2.11;100.00
53011;BME280;42803;55.762;38.084;2024-01-16T11:41:55;97086.97;;;-2.13;100.00
53011;BME280;42803;55.762;38.084;2024-01-16T11:44:42;97092.06;;;-2.13;100.00
53011;BME280;42803;55.762;38.084;2024-01-16T11:47:16;97080.16;;;-2.23;100.00
53011;BME280;42803;55.762;38.084;2024-01-16T11:49:46;97082.84;;;-2.22;100.00
53011;BME280;42803;55.762;38.084;2024-01-16T11:52:40;97073.88;;;-2.27;100.00
53011;BME280;42803;55.762;38.084;2024-01-16T11:55:25;97072.09;;;-2.28;100.00
53011;BME280;42803;55.762;38.084;2024-01-16T11:58:10;97079.53;;;-2.21;100.00
53011;BME280;42803;55.762;38.084;2024-01-16T12:00:49;97073.09;;;-2.26;100.00
53011;BME280;42803;55.762;38.084;2024-01-16T12:03:21;97068.38;;;-2.31;100.00
53011;BME280;42803;55.762;38.084;2024-01-16T12:06:02;97070.31;;;-2.29;100.00
53011;BME280;42803;55.762;38.084;2024-01-16T12:08:36;97065.72;;;-2.23;100.00
53011;BME280;42803;55.762;38.084;2024-01-16T12:11:05;97053.84;;;-2.32;100.00
53011;BME280;42803;55.762;38.084;2024-01-16T12:13:35;97061.50;;;-2.32;100.00
53011;BME280;42803;55.762;38.084;2024-01-16T12:16:04;97059.94;;;-2.30;100.00
53011;BME280;42803;55.762;38.084;2024-01-16T12:18:33;97061.00;;;-2.28;100.00
53011;BME280;42803;55.762;38.084;2024-01-16T12:21:12;97053.84;;;-2.32;100.00
53011;BME280;42803;55.762;38.084;2024-01-16T12:23:45;97044.72;;;-2.39;100.00
53011;BME280;42803;55.762;38.084;2024-01-16T12:26:27;97043.06;;;-2.38;100.00
53011;BME280;42803;55.762;38.084;2024-01-16T12:28:56;97047.28;;;-2.39;100.00
53011;BME280;42803;55.762;38.084;2024-01-16T12:31:27;97031.41;;;-2.45;100.00
53011;BME280;42803;55.762;38.084;2024-01-16T12:34:05;97038.97;;;-2.47;100.00
53011;BME280;42803;55.762;38.084;2024-01-16T12:36:37;97028.84;;;-2.55;100.00
53011;BME280;42803;55.762;38.084;2024-01-16T12:39:08;97032.41;;;-2.53;100.00
53011;BME280;42803;55.762;38.084;2024-01-16T12:41:41;97035.47;;;-2.57;100.00
53011;BME280;42803;55.762;38.084;2024-01-16T12:44:13;97032.25;;;-2.65;100.00
53011;BME280;42803;55.762;38.084;2024-01-16T12:46:53;97039.25;;;-2.73;100.00
53011;BME280;42803;55.762;38.084;2024-01-16T12:49:24;97036.16;;;-2.79;100.00
53011;BME280;42803;55.762;38.084;2024-01-16T12:52:17;97037.81;;;-2.79;100.00
53011;BME280;42803;55.762;38.084;2024-01-16T12:54:58;97037.69;;;-2.81;100.00
53011;BME280;42803;55.762;38.084;2024-01-16T12:57:31;97026.97;;;-2.77;100.00
53011;BME280;42803;55.762;38.084;2024-01-16T13:00:01;97033.59;;;-2.79;100.00